createdAt,value
2023-03-29T00:01:06.848Z,100.00
2023-03-29T00:03:35.275Z,100.00
2023-03-29T00:06:04.228Z,100.00
2023-03-29T00:08:38.163Z,100.00
2023-03-29T00:11:07.721Z,100.00
2023-03-29T00:13:36.264Z,100.00
2023-03-29T00:16:04.916Z,100.00
2023-03-29T00:18:33.429Z,100.00
2023-03-29T00:21:02.627Z,100.00
2023-03-29T00:23:31.427Z,100.00
2023-03-29T00:26:00.000Z,100.00
2023-03-29T00:28:28.414Z,100.00
2023-03-29T00:31:09.740Z,100.00
2023-03-29T00:33:39.788Z,100.00
2023-03-29T00:36:10.426Z,100.00
2023-03-29T00:38:40.021Z,100.00
2023-03-29T00:41:09.326Z,100.00
2023-03-29T00:44:06.832Z,100.00
2023-03-29T00:46:37.277Z,100.00
2023-03-29T00:49:12.971Z,100.00
2023-03-29T00:51:43.510Z,100.00
2023-03-29T00:54:18.874Z,100.00
2023-03-29T00:56:51.386Z,100.00
2023-03-29T00:59:24.807Z,100.00
2023-03-29T01:02:22.968Z,100.00
2023-03-29T01:04:59.435Z,100.00
2023-03-29T01:07:35.474Z,100.00
2023-03-29T01:10:17.485Z,100.00
2023-03-29T01:12:53.473Z,100.00
2023-03-29T01:15:28.522Z,100.00
2023-03-29T01:17:58.592Z,100.00
2023-03-29T01:20:52.717Z,100.00
2023-03-29T01:23:46.081Z,100.00
2023-03-29T01:26:32.687Z,100.00
2023-03-29T01:29:23.493Z,100.00
2023-03-29T01:31:58.278Z,100.00
2023-03-29T01:34:43.578Z,100.00
2023-03-29T01:37:44.333Z,100.00
2023-03-29T01:40:12.815Z,100.00
2023-03-29T01:42:53.482Z,100.00
2023-03-29T01:45:40.216Z,100.00
2023-03-29T01:48:20.360Z,100.00
2023-03-29T01:51:05.930Z,100.00
2023-03-29T01:53:44.345Z,100.00
2023-03-29T01:56:21.938Z,100.00
2023-03-29T01:58:58.474Z,100.00
2023-03-29T02:01:30.986Z,100.00
2023-03-29T02:04:04.593Z,100.00
2023-03-29T02:06:36.239Z,100.00
2023-03-29T02:09:05.238Z,100.00
2023-03-29T02:11:35.124Z,100.00
2023-03-29T02:14:03.941Z,100.00
2023-03-29T02:16:39.436Z,100.00
2023-03-29T02:19:09.906Z,100.00
2023-03-29T02:22:01.678Z,100.00
2023-03-29T02:24:33.808Z,100.00
2023-03-29T02:27:03.209Z,100.00
2023-03-29T02:29:31.993Z,100.00
2023-03-29T02:32:25.108Z,100.00
2023-03-29T02:35:14.429Z,100.00
2023-03-29T02:37:46.694Z,100.00
2023-03-29T02:40:17.482Z,100.00
2023-03-29T02:42:49.083Z,100.00
2023-03-29T02:45:18.798Z,100.00
2023-03-29T02:47:51.896Z,100.00
2023-03-29T02:50:21.153Z,100.00
2023-03-29T02:52:59.397Z,100.00
2023-03-29T02:55:34.859Z,100.00
2023-03-29T02:58:13.575Z,100.00
2023-03-29T03:00:46.352Z,100.00
2023-03-29T03:03:18.737Z,100.00
2023-03-29T03:05:49.459Z,100.00
2023-03-29T03:08:18.975Z,100.00
2023-03-29T03:10:48.470Z,100.00
2023-03-29T03:13:17.364Z,100.00
2023-03-29T03:15:49.121Z,100.00
2023-03-29T03:18:18.520Z,100.00
2023-03-29T03:20:57.495Z,100.00
2023-03-29T03:23:25.619Z,100.00
2023-03-29T03:25:55.391Z,100.00
2023-03-29T03:28:24.621Z,100.00
2023-03-29T03:30:54.378Z,100.00
2023-03-29T03:33:27.198Z,100.00
2023-03-29T03:36:14.283Z,100.00
2023-03-29T03:38:44.294Z,100.00
2023-03-29T03:41:13.684Z,100.00
2023-03-29T03:43:44.187Z,100.00
2023-03-29T03:46:13.119Z,100.00
2023-03-29T03:48:41.970Z,100.00
2023-03-29T03:51:17.819Z,100.00
2023-03-29T03:53:46.406Z,100.00
2023-03-29T03:56:15.296Z,100.00
2023-03-29T03:59:07.326Z,100.00
2023-03-29T04:01:43.861Z,100.00
2023-03-29T04:04:17.846Z,100.00
2023-03-29T04:07:09.845Z,100.00
2023-03-29T04:09:42.430Z,100.00
2023-03-29T04:12:46.745Z,100.00
2023-03-29T04:15:15.324Z,100.00
2023-03-29T04:17:49.046Z,100.00
2023-03-29T04:20:36.151Z,100.00
2023-03-29T04:23:05.254Z,100.00
2023-03-29T04:25:33.622Z,100.00
2023-03-29T04:28:21.492Z,100.00
2023-03-29T04:31:03.836Z,100.00
2023-03-29T04:33:47.747Z,100.00
2023-03-29T04:36:16.430Z,100.00
2023-03-29T04:38:47.800Z,100.00
2023-03-29T04:41:16.954Z,100.00
2023-03-29T04:43:59.461Z,100.00
2023-03-29T04:46:32.552Z,100.00
2023-03-29T04:49:27.241Z,100.00
2023-03-29T04:51:56.142Z,100.00
2023-03-29T04:54:27.904Z,100.00
2023-03-29T04:57:02.301Z,100.00
2023-03-29T04:59:49.436Z,100.00
2023-03-29T05:02:25.418Z,100.00
2023-03-29T05:04:54.394Z,100.00
2023-03-29T05:07:23.172Z,100.00
2023-03-29T05:09:52.164Z,100.00
2023-03-29T05:12:22.607Z,100.00
2023-03-29T05:14:54.555Z,100.00
2023-03-29T05:17:27.747Z,100.00
2023-03-29T05:20:01.619Z,100.00
2023-03-29T05:22:29.933Z,100.00
2023-03-29T05:24:59.661Z,100.00
2023-03-29T05:27:29.969Z,100.00
2023-03-29T05:30:10.639Z,100.00
2023-03-29T05:33:05.923Z,100.00
2023-03-29T05:35:36.244Z,100.00
2023-03-29T05:38:06.696Z,100.00
2023-03-29T05:40:36.002Z,100.00
2023-03-29T05:43:35.199Z,100.00
2023-03-29T05:46:03.620Z,100.00
2023-03-29T05:48:32.876Z,95.46
2023-03-29T05:51:02.465Z,96.01
2023-03-29T05:53:31.702Z,87.60
2023-03-29T05:56:02.417Z,80.52
2023-03-29T05:58:31.544Z,76.94
2023-03-29T06:01:00.776Z,71.61
2023-03-29T06:03:38.648Z,69.90
2023-03-29T06:06:09.730Z,71.60
2023-03-29T06:08:38.343Z,75.05
2023-03-29T06:11:29.767Z,75.92
2023-03-29T06:14:16.573Z,75.53
2023-03-29T06:16:50.349Z,75.66
2023-03-29T06:19:19.477Z,76.81
2023-03-29T06:21:48.288Z,76.46
2023-03-29T06:24:21.150Z,77.16
2023-03-29T06:26:53.524Z,77.48
2023-03-29T06:29:22.310Z,78.47
2023-03-29T06:31:51.865Z,77.52
2023-03-29T06:34:53.398Z,76.35
2023-03-29T06:37:49.849Z,74.81
2023-03-29T06:40:34.583Z,70.69
2023-03-29T06:43:02.786Z,64.51
2023-03-29T06:45:57.172Z,63.26
2023-03-29T06:48:35.253Z,63.90
2023-03-29T06:51:04.695Z,62.05
2023-03-29T06:53:34.264Z,61.63
2023-03-29T06:56:09.375Z,60.39
2023-03-29T06:58:45.293Z,63.07
2023-03-29T07:01:43.436Z,62.93
2023-03-29T07:04:19.439Z,62.52
2023-03-29T07:07:12.154Z,58.31
2023-03-29T07:09:40.616Z,60.22
2023-03-29T07:12:44.846Z,58.81
2023-03-29T07:15:14.238Z,59.35
2023-03-29T07:18:03.720Z,57.17
2023-03-29T07:20:33.970Z,51.00
2023-03-29T07:23:09.600Z,42.23
2023-03-29T07:25:38.572Z,42.82
2023-03-29T07:28:07.727Z,44.94
2023-03-29T07:30:38.370Z,41.73
2023-03-29T07:33:13.530Z,38.63
2023-03-29T07:35:51.183Z,36.67
2023-03-29T07:38:19.630Z,32.95
2023-03-29T07:40:52.239Z,36.14
2023-03-29T07:43:47.098Z,33.20
2023-03-29T07:46:17.584Z,29.54
2023-03-29T07:48:45.914Z,30.99
2023-03-29T07:51:17.012Z,31.78
2023-03-29T07:53:46.900Z,30.26
2023-03-29T07:56:33.874Z,29.05
2023-03-29T07:59:34.253Z,29.58
2023-03-29T08:02:14.651Z,30.73
2023-03-29T08:04:47.091Z,30.46
2023-03-29T08:07:21.572Z,30.79
2023-03-29T08:10:14.113Z,29.80
2023-03-29T08:13:07.404Z,29.37
2023-03-29T08:15:48.759Z,29.19
2023-03-29T08:18:46.385Z,28.81
2023-03-29T08:21:15.114Z,29.55
2023-03-29T08:23:45.335Z,28.67
2023-03-29T08:26:18.325Z,29.34
2023-03-29T08:28:47.932Z,30.35
2023-03-29T08:31:16.968Z,31.13
2023-03-29T08:33:46.490Z,31.94
2023-03-29T08:36:27.915Z,31.08
2023-03-29T08:38:58.037Z,30.83
2023-03-29T08:41:39.112Z,31.82
2023-03-29T08:44:34.937Z,32.42
2023-03-29T08:47:09.386Z,33.72
2023-03-29T08:49:45.844Z,34.21
2023-03-29T08:52:23.624Z,35.02
2023-03-29T08:54:57.344Z,34.82
2023-03-29T08:57:55.002Z,35.27
2023-03-29T09:00:41.975Z,34.86
2023-03-29T09:03:38.555Z,35.00
2023-03-29T09:06:12.963Z,35.06
2023-03-29T09:08:46.337Z,35.61
2023-03-29T09:11:23.987Z,34.51
2023-03-29T09:14:11.185Z,34.62
2023-03-29T09:17:16.946Z,35.22
2023-03-29T09:20:14.303Z,36.37
2023-03-29T09:22:55.373Z,36.04
2023-03-29T09:26:04.130Z,35.30
2023-03-29T09:29:04.731Z,35.77
2023-03-29T09:31:39.338Z,35.99
2023-03-29T09:34:21.664Z,37.93
2023-03-29T09:37:10.826Z,38.70
2023-03-29T09:39:41.229Z,39.73
2023-03-29T09:42:17.010Z,42.59
2023-03-29T09:44:51.058Z,46.29
2023-03-29T09:47:35.393Z,51.36
2023-03-29T09:50:30.180Z,55.35
2023-03-29T09:53:00.705Z,56.79
2023-03-29T09:55:36.659Z,59.99
2023-03-29T09:58:15.392Z,59.98
2023-03-29T10:00:49.184Z,61.55
2023-03-29T10:03:20.413Z,58.64
2023-03-29T10:05:58.947Z,58.97
2023-03-29T10:08:28.789Z,61.96
2023-03-29T10:11:01.884Z,63.72
2023-03-29T10:13:33.406Z,62.96
2023-03-29T10:16:08.018Z,63.31
2023-03-29T10:18:42.673Z,58.41
2023-03-29T10:21:22.195Z,54.84
2023-03-29T10:23:58.590Z,51.22
2023-03-29T10:26:32.909Z,49.12
2023-03-29T10:29:04.845Z,45.89
2023-03-29T10:31:34.157Z,43.18
2023-03-29T10:34:05.378Z,41.31
2023-03-29T10:36:34.176Z,39.60
2023-03-29T10:39:06.236Z,39.70
2023-03-29T10:41:36.133Z,36.92
2023-03-29T10:44:05.152Z,36.55
2023-03-29T10:46:41.972Z,37.11
2023-03-29T10:49:20.831Z,37.78
2023-03-29T10:51:50.877Z,35.45
2023-03-29T10:54:22.707Z,34.97
2023-03-29T10:57:00.583Z,34.43
2023-03-29T10:59:30.450Z,34.37
2023-03-29T11:02:14.192Z,33.94
2023-03-29T11:04:57.030Z,35.05
2023-03-29T11:07:59.299Z,33.84
2023-03-29T11:10:39.741Z,35.12
2023-03-29T11:13:10.886Z,34.78
2023-03-29T11:15:43.993Z,33.72
2023-03-29T11:18:37.137Z,33.64
2023-03-29T11:21:51.905Z,33.56
2023-03-29T11:24:20.282Z,33.31
2023-03-29T11:26:57.882Z,32.45
2023-03-29T11:29:40.796Z,32.12
2023-03-29T11:32:37.560Z,31.68
2023-03-29T11:35:30.572Z,31.59
2023-03-29T11:38:11.160Z,31.89
2023-03-29T11:40:53.479Z,31.53
2023-03-29T11:43:33.524Z,31.50
2023-03-29T11:46:14.121Z,31.30
2023-03-29T11:48:50.356Z,31.46
2023-03-29T11:51:37.370Z,31.63
2023-03-29T11:54:25.614Z,31.88
2023-03-29T11:56:56.915Z,29.79
2023-03-29T11:59:36.470Z,29.10
2023-03-29T12:02:18.825Z,29.27
2023-03-29T12:04:52.415Z,29.60
2023-03-29T12:07:30.074Z,29.61
2023-03-29T12:10:39.251Z,29.59
2023-03-29T12:13:36.290Z,30.32
2023-03-29T12:16:13.839Z,29.11
2023-03-29T12:18:56.519Z,28.40
2023-03-29T12:21:28.874Z,27.99
2023-03-29T12:23:58.381Z,28.63
2023-03-29T12:26:46.414Z,28.35
2023-03-29T12:29:17.357Z,27.88
2023-03-29T12:32:16.974Z,27.76
2023-03-29T12:35:14.338Z,27.52
2023-03-29T12:38:24.537Z,28.24
2023-03-29T12:41:23.692Z,28.23
2023-03-29T12:44:24.640Z,27.10
2023-03-29T12:47:23.631Z,27.40
2023-03-29T12:49:56.645Z,27.21
2023-03-29T12:52:30.735Z,27.22
2023-03-29T12:55:01.807Z,27.08
2023-03-29T12:57:42.242Z,26.90
2023-03-29T13:00:22.701Z,26.90
2023-03-29T13:03:25.500Z,26.36
2023-03-29T13:06:02.806Z,26.00
2023-03-29T13:08:37.120Z,26.96
2023-03-29T13:11:07.560Z,26.56
2023-03-29T13:13:38.455Z,26.23
2023-03-29T13:16:13.499Z,25.82
2023-03-29T13:18:56.623Z,25.86
2023-03-29T13:21:34.324Z,25.91
2023-03-29T13:24:21.227Z,26.72
2023-03-29T13:27:25.250Z,26.44
2023-03-29T13:29:56.492Z,26.40
2023-03-29T13:32:31.233Z,25.79
2023-03-29T13:35:32.280Z,26.32
2023-03-29T13:38:23.113Z,26.81
2023-03-29T13:40:54.619Z,27.05
2023-03-29T13:43:33.224Z,27.17
2023-03-29T13:46:01.496Z,27.51
2023-03-29T13:48:47.818Z,27.97
2023-03-29T13:51:19.172Z,28.64
2023-03-29T13:54:01.093Z,27.88
2023-03-29T13:56:37.306Z,27.83
2023-03-29T13:59:11.234Z,27.82
2023-03-29T14:01:43.628Z,27.69
2023-03-29T14:04:22.428Z,27.45
2023-03-29T14:06:56.583Z,27.04
2023-03-29T14:09:33.468Z,27.64
2023-03-29T14:12:02.321Z,27.14
2023-03-29T14:14:32.288Z,26.94
2023-03-29T14:17:01.044Z,27.56
2023-03-29T14:19:33.200Z,28.14
2023-03-29T14:22:03.415Z,28.59
2023-03-29T14:24:38.704Z,28.68
2023-03-29T14:27:10.312Z,29.15
2023-03-29T14:29:38.779Z,29.53
2023-03-29T14:32:11.986Z,29.79
2023-03-29T14:34:40.874Z,30.19
2023-03-29T14:37:24.015Z,30.62
2023-03-29T14:39:52.981Z,31.27
2023-03-29T14:42:26.911Z,31.14
2023-03-29T14:45:04.289Z,31.32
2023-03-29T14:47:34.215Z,31.35
2023-03-29T14:50:04.262Z,31.76
2023-03-29T14:52:33.824Z,31.45
2023-03-29T14:55:04.401Z,31.63
2023-03-29T14:57:36.578Z,31.88
2023-03-29T15:00:19.554Z,32.48
2023-03-29T15:02:58.189Z,32.76
2023-03-29T15:05:34.616Z,33.08
2023-03-29T15:08:04.236Z,33.59
2023-03-29T15:10:35.629Z,33.62
2023-03-29T15:13:06.766Z,34.07
2023-03-29T15:15:38.619Z,34.55
2023-03-29T15:18:10.078Z,34.89
2023-03-29T15:20:40.169Z,34.77
2023-03-29T15:23:08.344Z,35.31
2023-03-29T15:25:52.029Z,35.68
2023-03-29T15:28:32.764Z,35.95
2023-03-29T15:31:08.086Z,36.53
2023-03-29T15:33:38.987Z,36.71
2023-03-29T15:36:10.365Z,37.02
2023-03-29T15:38:44.753Z,37.28
2023-03-29T15:41:14.662Z,36.95
2023-03-29T15:43:43.307Z,36.84
2023-03-29T15:46:14.136Z,37.12
2023-03-29T15:48:43.337Z,37.13
2023-03-29T15:51:13.179Z,37.03
2023-03-29T15:53:42.764Z,37.17
2023-03-29T15:56:18.289Z,37.16
2023-03-29T15:58:47.725Z,37.44
2023-03-29T16:01:36.767Z,37.52
2023-03-29T16:04:12.575Z,38.00
2023-03-29T16:06:41.714Z,38.16
2023-03-29T16:09:12.063Z,38.87
2023-03-29T16:11:41.943Z,39.03
2023-03-29T16:14:23.341Z,39.33
2023-03-29T16:16:52.631Z,39.08
2023-03-29T16:19:22.191Z,39.48
2023-03-29T16:21:50.525Z,39.83
2023-03-29T16:24:27.414Z,39.88
2023-03-29T16:26:56.709Z,40.44
2023-03-29T16:29:25.745Z,40.31
2023-03-29T16:31:54.915Z,40.30
2023-03-29T16:34:23.695Z,40.91
2023-03-29T16:36:53.237Z,41.07
2023-03-29T16:39:21.746Z,40.99
2023-03-29T16:41:50.564Z,41.17
2023-03-29T16:44:23.929Z,40.95
2023-03-29T16:46:57.973Z,41.18
2023-03-29T16:49:26.245Z,41.17
2023-03-29T16:51:54.527Z,41.05
2023-03-29T16:54:25.876Z,41.32
2023-03-29T16:56:54.394Z,41.38
2023-03-29T16:59:23.140Z,41.27
2023-03-29T17:01:51.713Z,41.35
2023-03-29T17:04:20.561Z,41.62
2023-03-29T17:06:48.893Z,41.43
2023-03-29T17:09:17.736Z,41.58
2023-03-29T17:11:46.464Z,41.58
2023-03-29T17:14:15.381Z,41.65
2023-03-29T17:16:43.911Z,41.59
2023-03-29T17:19:12.739Z,41.79
2023-03-29T17:21:41.318Z,41.81
2023-03-29T17:24:10.003Z,42.02
2023-03-29T17:26:38.497Z,42.43
2023-03-29T17:29:06.761Z,42.85
2023-03-29T17:31:36.407Z,43.13
2023-03-29T17:34:07.923Z,43.65
2023-03-29T17:36:37.577Z,43.74
2023-03-29T17:39:10.009Z,43.89
2023-03-29T17:41:38.183Z,44.18
2023-03-29T17:44:07.651Z,44.42
2023-03-29T17:46:38.079Z,44.43
2023-03-29T17:49:06.596Z,45.12
2023-03-29T17:51:34.982Z,45.03
2023-03-29T17:54:04.071Z,45.18
2023-03-29T17:56:32.757Z,45.50
2023-03-29T17:59:01.082Z,46.35
2023-03-29T18:01:29.561Z,47.20
2023-03-29T18:03:57.798Z,46.76
2023-03-29T18:06:27.193Z,46.93
2023-03-29T18:08:56.625Z,47.62
2023-03-29T18:11:25.774Z,49.00
2023-03-29T18:13:54.906Z,48.84
2023-03-29T18:16:23.728Z,49.64
2023-03-29T18:18:52.374Z,49.18
2023-03-29T18:21:23.102Z,49.05
2023-03-29T18:23:54.362Z,49.15
2023-03-29T18:26:24.421Z,50.53
2023-03-29T18:28:53.404Z,51.09
2023-03-29T18:31:22.721Z,51.25
2023-03-29T18:33:51.145Z,50.91
2023-03-29T18:36:19.881Z,50.65
2023-03-29T18:38:48.211Z,50.92
2023-03-29T18:41:17.172Z,51.31
2023-03-29T18:43:47.022Z,51.54
2023-03-29T18:46:16.143Z,52.06
2023-03-29T18:48:44.501Z,52.20
2023-03-29T18:51:15.137Z,52.53
2023-03-29T18:53:44.531Z,53.15
2023-03-29T18:56:12.919Z,53.88
2023-03-29T18:58:41.198Z,54.78
2023-03-29T19:01:10.986Z,54.43
2023-03-29T19:03:39.745Z,55.01
2023-03-29T19:06:14.408Z,55.43
2023-03-29T19:08:42.567Z,55.59
2023-03-29T19:11:14.351Z,56.26
2023-03-29T19:13:43.249Z,56.32
2023-03-29T19:16:12.607Z,56.49
2023-03-29T19:18:42.251Z,56.27
2023-03-29T19:21:10.844Z,57.13
2023-03-29T19:23:42.695Z,57.38
2023-03-29T19:26:11.791Z,57.26
2023-03-29T19:28:42.424Z,56.91
2023-03-29T19:31:10.767Z,57.33
2023-03-29T19:33:41.340Z,57.62
2023-03-29T19:36:09.730Z,57.89
2023-03-29T19:38:38.058Z,57.50
2023-03-29T19:41:10.251Z,58.45
2023-03-29T19:43:38.690Z,58.66
2023-03-29T19:46:10.618Z,58.50
2023-03-29T19:48:39.922Z,58.87
2023-03-29T19:51:08.993Z,59.81
2023-03-29T19:53:38.882Z,59.98
2023-03-29T19:56:11.099Z,61.90
2023-03-29T19:58:39.557Z,62.03
2023-03-29T20:01:08.047Z,62.61
2023-03-29T20:03:36.580Z,62.29
2023-03-29T20:06:05.200Z,62.71
2023-03-29T20:08:33.481Z,62.54
2023-03-29T20:11:04.146Z,62.33
2023-03-29T20:13:38.773Z,62.77
2023-03-29T20:16:14.892Z,63.67
2023-03-29T20:18:47.076Z,63.57
2023-03-29T20:21:18.936Z,63.25
2023-03-29T20:23:47.719Z,62.86
2023-03-29T20:26:16.093Z,64.11
2023-03-29T20:28:44.677Z,64.55
2023-03-29T20:31:13.367Z,64.14
2023-03-29T20:33:44.507Z,64.35
2023-03-29T20:36:12.770Z,65.35
2023-03-29T20:38:41.167Z,64.57
2023-03-29T20:41:11.083Z,65.64
2023-03-29T20:43:41.098Z,65.28
2023-03-29T20:46:18.468Z,65.31
2023-03-29T20:48:53.624Z,65.64
2023-03-29T20:51:28.249Z,66.82
2023-03-29T20:54:04.944Z,66.47
2023-03-29T20:56:40.170Z,66.49
2023-03-29T20:59:10.850Z,66.74
2023-03-29T21:01:40.997Z,66.61
2023-03-29T21:04:11.155Z,67.84
2023-03-29T21:06:39.895Z,68.00
2023-03-29T21:09:08.741Z,69.15
2023-03-29T21:11:36.992Z,69.81
2023-03-29T21:14:05.280Z,72.97
2023-03-29T21:16:33.546Z,70.95
2023-03-29T21:19:01.831Z,70.33
2023-03-29T21:21:30.210Z,70.08
2023-03-29T21:23:58.386Z,70.93
2023-03-29T21:26:27.371Z,72.68
2023-03-29T21:28:55.543Z,72.56
2023-03-29T21:31:24.211Z,71.55
2023-03-29T21:33:54.962Z,73.25
2023-03-29T21:36:23.884Z,75.85
2023-03-29T21:38:52.851Z,75.39
2023-03-29T21:41:22.060Z,75.82
2023-03-29T21:43:50.543Z,75.62
2023-03-29T21:46:18.768Z,74.29
2023-03-29T21:48:47.068Z,73.19
2023-03-29T21:51:15.557Z,72.04
2023-03-29T21:53:44.455Z,71.72
2023-03-29T21:56:13.348Z,71.79
2023-03-29T21:58:42.056Z,71.92
2023-03-29T22:01:10.689Z,73.27
2023-03-29T22:03:39.207Z,73.95
2023-03-29T22:06:09.690Z,73.14
2023-03-29T22:08:41.083Z,75.32
2023-03-29T22:11:14.033Z,77.20
2023-03-29T22:13:43.569Z,75.36
2023-03-29T22:16:18.896Z,74.71
2023-03-29T22:18:52.727Z,76.12
2023-03-29T22:21:26.736Z,74.70
2023-03-29T22:23:57.192Z,74.75
2023-03-29T22:26:28.611Z,74.57
2023-03-29T22:28:58.994Z,73.92
2023-03-29T22:31:29.338Z,74.07
2023-03-29T22:33:58.569Z,75.07
2023-03-29T22:36:30.121Z,75.99
2023-03-29T22:38:58.518Z,76.77
2023-03-29T22:41:27.834Z,75.34
2023-03-29T22:43:58.347Z,75.59
2023-03-29T22:46:27.588Z,75.12
2023-03-29T22:48:56.007Z,76.95
2023-03-29T22:51:24.382Z,78.16
2023-03-29T22:53:52.595Z,76.80
2023-03-29T22:56:22.104Z,76.84
2023-03-29T22:58:51.264Z,77.87
2023-03-29T23:01:19.793Z,77.21
2023-03-29T23:03:48.146Z,76.72
2023-03-29T23:06:16.395Z,77.60
2023-03-29T23:08:44.808Z,79.99
2023-03-29T23:11:13.266Z,79.26
2023-03-29T23:13:41.534Z,77.59
2023-03-29T23:16:10.149Z,77.41
2023-03-29T23:18:39.006Z,77.69
2023-03-29T23:21:09.479Z,76.87
2023-03-29T23:23:38.534Z,76.04
2023-03-29T23:26:12.124Z,76.58
2023-03-29T23:28:41.243Z,76.29
2023-03-29T23:31:18.092Z,75.91
2023-03-29T23:33:46.690Z,75.43
2023-03-29T23:36:17.626Z,75.25
2023-03-29T23:38:47.085Z,77.43
2023-03-29T23:41:16.869Z,76.89
2023-03-29T23:43:47.413Z,76.32
2023-03-29T23:46:19.030Z,76.67
2023-03-29T23:48:49.310Z,76.37
2023-03-29T23:51:19.036Z,78.15
2023-03-29T23:53:47.958Z,77.20
2023-03-29T23:56:16.642Z,78.18
2023-03-29T23:58:44.929Z,78.89
